createdAt,value
2023-01-11T00:01:37.790Z,99963.06
2023-01-11T00:04:04.675Z,99964.78
2023-01-11T00:06:31.296Z,99965.06
2023-01-11T00:08:58.681Z,99962.75
2023-01-11T00:11:50.536Z,99968.44
2023-01-11T00:15:01.286Z,99965.22
2023-01-11T00:17:29.317Z,99971.13
2023-01-11T00:19:55.858Z,99971.53
2023-01-11T00:22:22.401Z,99969.81
2023-01-11T00:24:48.941Z,99974.72
2023-01-11T00:27:15.576Z,99974.03
2023-01-11T00:32:44.579Z,99980.63
2023-01-11T00:35:13.240Z,99987.34
2023-01-11T00:37:40.273Z,99985.47
2023-01-11T00:40:26.425Z,99983.09
2023-01-11T00:47:01.981Z,99990.94
2023-01-11T00:57:14.267Z,100001.44
2023-01-11T01:02:29.665Z,99993.09
2023-01-11T01:04:56.259Z,100010.53
2023-01-11T01:07:23.434Z,100010.37
2023-01-11T01:09:49.970Z,100017.69
2023-01-11T01:12:36.950Z,100012.88
2023-01-11T01:17:38.837Z,100022.41
2023-01-11T01:20:06.177Z,100005.94
2023-01-11T01:22:32.821Z,100015.34
2023-01-11T01:24:59.366Z,100017.84
2023-01-11T01:27:26.525Z,100020.00
2023-01-11T01:30:09.276Z,100021.59
2023-01-11T01:33:06.650Z,100033.16
2023-01-11T01:35:58.208Z,100023.97
2023-01-11T01:46:10.534Z,100031.94
2023-01-11T01:48:38.695Z,100034.84
2023-01-11T01:51:07.954Z,100028.97
2023-01-11T01:53:38.214Z,100039.47
2023-01-11T01:56:18.333Z,100033.16
2023-01-11T01:58:53.375Z,100043.78
2023-01-11T02:01:39.204Z,100037.91
2023-01-11T02:07:19.735Z,100042.06
2023-01-11T02:10:13.919Z,100051.28
2023-01-11T02:12:50.319Z,100048.13
2023-01-11T02:15:19.155Z,100052.19
2023-01-11T02:17:45.723Z,100059.16
2023-01-11T02:20:56.052Z,100059.72
2023-01-11T02:24:08.334Z,100052.66
2023-01-11T02:26:49.379Z,100063.50
2023-01-11T02:29:52.698Z,100055.25
2023-01-11T02:57:48.122Z,100067.25
2023-01-11T03:00:18.137Z,100074.41
2023-01-11T03:02:45.093Z,100082.53
2023-01-11T03:05:13.637Z,100090.56
2023-01-11T03:08:00.431Z,100085.88
2023-01-11T03:10:56.872Z,100092.50
2023-01-11T03:18:53.446Z,100101.41
2023-01-11T03:21:48.873Z,100104.44
2023-01-11T03:25:05.291Z,100113.50
2023-01-11T03:31:37.313Z,100120.44
2023-01-11T03:34:40.340Z,100122.50
2023-01-11T03:37:12.855Z,100119.69
2023-01-11T03:39:51.182Z,100120.81
2023-01-11T03:42:21.683Z,100124.47
2023-01-11T03:45:26.708Z,100119.81
2023-01-11T03:47:55.075Z,100115.88
2023-01-11T03:50:23.354Z,100106.84
2023-01-11T03:52:51.492Z,100101.84
2023-01-11T04:09:40.431Z,100074.69
2023-01-11T04:12:07.254Z,100080.09
2023-01-11T04:14:33.834Z,100070.34
2023-01-11T04:17:00.554Z,100086.22
2023-01-11T04:19:27.136Z,100087.47
2023-01-11T04:21:53.707Z,100084.66
2023-01-11T04:24:20.460Z,100091.37
2023-01-11T04:26:47.362Z,100103.69
2023-01-11T04:29:14.021Z,100102.19
2023-01-11T04:31:40.639Z,100083.50
2023-01-11T04:34:07.526Z,100084.56
2023-01-11T04:36:34.143Z,100074.94
2023-01-11T04:39:00.921Z,100076.44
2023-01-11T04:41:46.017Z,100084.91
2023-01-11T04:44:12.634Z,100102.66
2023-01-11T04:46:39.188Z,100107.34
2023-01-11T04:49:05.747Z,100117.81
2023-01-11T04:51:32.298Z,100123.44
2023-01-11T04:53:59.945Z,100127.19
2023-01-11T04:56:26.534Z,100133.62
2023-01-11T04:59:24.137Z,100114.56
2023-01-11T05:01:50.718Z,100125.94
2023-01-11T05:04:17.356Z,100130.31
2023-01-11T05:06:44.072Z,100132.66
2023-01-11T05:12:45.912Z,100141.63
2023-01-11T05:15:12.876Z,100134.94
2023-01-11T05:17:39.485Z,100129.19
2023-01-11T05:20:06.368Z,100122.16
2023-01-11T05:22:33.042Z,100121.19
2023-01-11T05:24:59.608Z,100138.25
2023-01-11T05:27:26.317Z,100153.31
2023-01-11T05:29:52.870Z,100140.62
2023-01-11T05:32:19.541Z,100149.19
2023-01-11T05:34:46.079Z,100135.34
2023-01-11T05:37:15.289Z,100132.16
2023-01-11T05:39:41.870Z,100129.88
2023-01-11T05:42:08.586Z,100123.94
2023-01-11T05:44:54.649Z,100115.75
2023-01-11T05:47:40.598Z,100120.62
2023-01-11T05:50:07.391Z,100114.50
2023-01-11T05:52:33.964Z,100104.44
2023-01-11T05:55:00.522Z,100116.16
2023-01-11T06:00:23.081Z,100114.28
2023-01-11T06:02:49.738Z,100116.16
2023-01-11T06:05:16.556Z,100105.09
2023-01-11T06:07:43.144Z,100106.66
2023-01-11T06:10:10.449Z,100098.66
2023-01-11T06:13:26.671Z,100102.53
2023-01-11T06:16:36.227Z,100107.84
2023-01-11T06:19:24.851Z,100121.34
2023-01-11T06:24:26.767Z,100111.47
2023-01-11T06:26:53.642Z,100113.59
2023-01-11T06:29:20.577Z,100110.53
2023-01-11T06:31:47.198Z,100116.41
2023-01-11T06:34:13.749Z,100115.00
2023-01-11T06:36:40.395Z,100123.44
2023-01-11T06:39:07.208Z,100122.63
2023-01-11T06:41:33.830Z,100117.69
2023-01-11T06:44:00.381Z,100125.09
2023-01-11T06:46:29.064Z,100124.87
2023-01-11T06:48:55.868Z,100134.25
2023-01-11T06:51:22.520Z,100135.91
2023-01-11T06:53:49.109Z,100146.97
2023-01-11T06:56:18.937Z,100156.13
2023-01-11T06:58:47.137Z,100151.28
2023-01-11T07:01:14.385Z,100159.66
2023-01-11T07:06:16.706Z,100164.59
2023-01-11T07:08:43.300Z,100180.34
2023-01-11T07:11:10.675Z,100183.88
2023-01-11T07:13:37.287Z,100188.78
2023-01-11T07:16:04.089Z,100184.22
2023-01-11T07:19:01.539Z,100196.69
2023-01-11T07:21:53.221Z,100203.00
2023-01-11T07:24:20.427Z,100210.91
2023-01-11T07:26:46.963Z,100200.91
2023-01-11T07:29:13.740Z,100213.25
2023-01-11T07:31:40.315Z,100204.31
2023-01-11T07:34:26.286Z,100210.78
2023-01-11T07:36:52.840Z,100216.53
2023-01-11T07:39:19.442Z,100219.56
2023-01-11T07:42:04.771Z,100217.44
2023-01-11T07:44:31.369Z,100220.37
2023-01-11T07:46:58.275Z,100209.38
2023-01-11T07:49:25.015Z,100206.03
2023-01-11T07:51:54.198Z,100203.94
2023-01-11T07:54:20.878Z,100199.44
2023-01-11T07:56:47.509Z,100190.72
2023-01-11T07:59:14.077Z,100193.03
2023-01-11T08:01:40.660Z,100192.56
2023-01-11T08:04:11.929Z,100203.72
2023-01-11T08:06:39.291Z,100206.16
2023-01-11T08:09:06.621Z,100210.00
2023-01-11T08:11:51.719Z,100205.63
2023-01-11T08:14:37.163Z,100209.75
2023-01-11T08:17:03.899Z,100220.06
2023-01-11T08:19:33.108Z,100225.06
2023-01-11T08:21:59.788Z,100226.66
2023-01-11T08:24:26.964Z,100233.09
2023-01-11T08:26:53.540Z,100231.22
2023-01-11T08:29:20.286Z,100233.50
2023-01-11T08:31:48.141Z,100236.19
2023-01-11T08:34:15.036Z,100236.19
2023-01-11T08:36:41.674Z,100240.50
2023-01-11T08:39:08.384Z,100245.22
2023-01-11T08:41:35.158Z,100247.09
2023-01-11T08:44:02.134Z,100248.44
2023-01-11T08:46:28.724Z,100232.38
2023-01-11T08:49:17.005Z,100229.19
2023-01-11T08:57:27.522Z,100232.34
2023-01-11T08:59:54.095Z,100232.34
2023-01-11T09:10:30.852Z,100237.91
2023-01-11T09:12:59.771Z,100238.97
2023-01-11T09:15:27.764Z,100249.53
2023-01-11T09:17:54.680Z,100244.31
2023-01-11T09:20:21.756Z,100251.88
2023-01-11T09:22:53.024Z,100249.34
2023-01-11T09:25:20.560Z,100256.72
2023-01-11T09:27:49.008Z,100247.81
2023-01-11T09:30:21.908Z,100237.88
2023-01-11T09:32:49.901Z,100234.91
2023-01-11T09:35:17.974Z,100240.69
2023-01-11T09:37:49.145Z,100236.53
2023-01-11T09:40:55.232Z,100234.75
2023-01-11T09:43:27.459Z,100233.63
2023-01-11T09:45:57.935Z,100235.22
2023-01-11T09:52:40.055Z,100236.31
2023-01-11T09:55:15.502Z,100233.37
2023-01-11T09:57:54.341Z,100224.19
2023-01-11T10:01:03.365Z,100225.03
2023-01-11T10:03:58.263Z,100218.03
2023-01-11T10:06:29.873Z,100206.50
2023-01-11T10:18:34.382Z,100204.06
2023-01-11T10:19:37.568Z,100196.47
2023-01-11T10:22:23.407Z,100192.72
2023-01-11T10:24:53.753Z,100196.22
2023-01-11T10:27:30.881Z,100189.97
2023-01-11T10:30:19.101Z,100195.72
2023-01-11T10:33:06.567Z,100202.63
2023-01-11T10:36:10.520Z,100203.75
2023-01-11T10:38:56.591Z,100202.91
2023-01-11T10:41:57.449Z,100201.59
2023-01-11T10:44:36.929Z,100200.81
2023-01-11T10:47:07.539Z,100203.81
2023-01-11T10:49:58.895Z,100204.88
2023-01-11T10:52:52.090Z,100206.25
2023-01-11T10:55:46.663Z,100197.25
2023-01-11T10:58:44.289Z,100195.34
2023-01-11T11:01:36.609Z,100201.59
2023-01-11T11:04:26.014Z,100201.88
2023-01-11T11:07:22.328Z,100200.00
2023-01-11T11:10:16.923Z,100204.06
2023-01-11T11:12:51.039Z,100190.63
2023-01-11T11:15:25.781Z,100185.75
2023-01-11T11:17:54.126Z,100181.38
2023-01-11T11:20:28.781Z,100166.59
2023-01-11T11:22:58.550Z,100164.69
2023-01-11T11:25:34.057Z,100166.66
2023-01-11T11:28:14.745Z,100169.59
2023-01-11T11:30:46.920Z,100171.44
2023-01-11T11:33:31.157Z,100175.50
2023-01-11T11:36:02.201Z,100169.63
2023-01-11T11:38:34.849Z,100166.37
2023-01-11T11:41:04.579Z,100160.16
2023-01-11T11:43:33.349Z,100155.28
2023-01-11T11:46:26.601Z,100161.53
2023-01-11T11:49:15.724Z,100163.91
2023-01-11T11:51:44.653Z,100169.22
2023-01-11T11:54:43.296Z,100167.22
2023-01-11T11:57:23.858Z,100165.47
2023-01-11T12:00:01.124Z,100166.63
2023-01-11T12:02:31.554Z,100160.88
2023-01-11T12:05:00.662Z,100168.19
2023-01-11T12:07:34.419Z,100164.81
2023-01-11T12:10:07.292Z,100163.34
2023-01-11T12:12:34.576Z,100164.19
2023-01-11T12:15:15.342Z,100158.47
2023-01-11T12:17:42.899Z,100156.03
2023-01-11T12:20:31.152Z,100167.06
2023-01-11T12:23:21.567Z,100164.06
2023-01-11T12:26:19.012Z,100164.97
2023-01-11T12:28:48.603Z,100171.47
2023-01-11T12:31:54.281Z,100173.03
2023-01-11T12:34:29.949Z,100175.03
2023-01-11T12:36:56.452Z,100171.78
2023-01-11T12:39:41.987Z,100171.59
2023-01-11T12:42:23.632Z,100179.72
2023-01-11T12:45:02.117Z,100177.88
2023-01-11T12:47:40.614Z,100166.91
2023-01-11T12:50:21.319Z,100180.59
2023-01-11T12:52:59.282Z,100174.62
2023-01-11T12:55:54.847Z,100174.81
2023-01-11T12:58:45.542Z,100165.31
2023-01-11T13:01:32.821Z,100164.97
2023-01-11T13:04:02.117Z,100166.75
2023-01-11T13:06:49.785Z,100159.00
2023-01-11T13:09:45.667Z,100166.19
2023-01-11T13:12:58.478Z,100156.50
2023-01-11T13:15:48.947Z,100164.91
2023-01-11T13:18:27.272Z,100148.91
2023-01-11T13:21:02.158Z,100162.41
2023-01-11T13:23:50.213Z,100162.09
2023-01-11T13:26:22.957Z,100159.94
2023-01-11T13:29:03.598Z,100170.25
2023-01-11T13:31:33.616Z,100189.16
2023-01-11T13:34:22.315Z,100179.63
2023-01-11T13:36:56.931Z,100181.34
2023-01-11T13:39:29.715Z,100179.03
2023-01-11T13:42:00.551Z,100179.41
2023-01-11T13:44:53.600Z,100182.22
2023-01-11T13:47:40.229Z,100185.50
2023-01-11T13:50:22.551Z,100186.63
2023-01-11T13:53:03.495Z,100181.16
2023-01-11T13:55:59.447Z,100180.88
2023-01-11T13:58:35.601Z,100185.81
2023-01-11T14:01:20.891Z,100190.72
2023-01-11T14:04:15.712Z,100189.91
2023-01-11T14:07:07.925Z,100193.19
2023-01-11T14:09:37.350Z,100185.50
2023-01-11T14:12:31.049Z,100189.84
2023-01-11T14:15:21.799Z,100182.50
2023-01-11T14:20:32.870Z,100185.75
2023-01-11T14:23:38.523Z,100187.91
2023-01-11T14:26:42.453Z,100181.34
2023-01-11T14:29:30.804Z,100181.75
2023-01-11T14:32:07.168Z,100172.81
2023-01-11T14:35:04.732Z,100173.13
2023-01-11T14:37:46.347Z,100181.06
2023-01-11T14:40:37.229Z,100175.84
2023-01-11T14:43:06.381Z,100175.84
2023-01-11T14:45:46.682Z,100177.62
2023-01-11T14:48:42.301Z,100172.66
2023-01-11T14:59:24.317Z,100167.13
2023-01-11T15:02:02.754Z,100161.38
2023-01-11T15:04:33.291Z,100159.47
2023-01-11T15:07:01.042Z,100168.19
2023-01-11T15:09:48.608Z,100166.56
2023-01-11T15:14:56.496Z,100168.47
2023-01-11T15:17:45.379Z,100164.31
2023-01-11T15:20:15.749Z,100166.97
2023-01-11T15:25:26.540Z,100174.81
2023-01-11T15:27:54.461Z,100181.09
2023-01-11T15:30:30.207Z,100175.00
2023-01-11T15:33:18.578Z,100185.78
2023-01-11T15:35:57.398Z,100177.59
2023-01-11T15:38:31.492Z,100186.31
2023-01-11T15:41:21.286Z,100178.97
2023-01-11T15:44:01.606Z,100176.88
2023-01-11T15:47:06.347Z,100165.09
2023-01-11T15:49:58.151Z,100175.09
2023-01-11T15:52:24.706Z,100174.28
2023-01-11T15:55:17.631Z,100172.06
2023-01-11T15:57:47.105Z,100173.16
2023-01-11T16:00:37.346Z,100175.78
2023-01-11T16:05:44.978Z,100176.13
2023-01-11T16:08:26.318Z,100171.06
2023-01-11T16:14:20.929Z,100169.47
2023-01-11T16:35:25.786Z,100160.09
2023-01-11T16:40:40.421Z,100161.50
2023-01-11T16:43:26.366Z,100158.22
2023-01-11T16:45:56.921Z,100158.72
2023-01-11T16:48:32.072Z,100159.84
2023-01-11T16:51:18.085Z,100165.41
2023-01-11T16:56:27.793Z,100173.91
2023-01-11T16:59:19.499Z,100160.97
2023-01-11T17:02:28.329Z,100164.69
2023-01-11T17:04:55.953Z,100162.72
2023-01-11T17:07:42.711Z,100164.81
2023-01-11T17:10:29.819Z,100169.66
2023-01-11T17:13:58.266Z,100173.09
2023-01-11T17:19:18.878Z,100171.56
2023-01-11T17:30:42.677Z,100163.25
2023-01-11T17:38:55.856Z,100171.63
2023-01-11T17:48:33.428Z,100167.44
2023-01-11T17:53:50.559Z,100189.37
2023-01-11T17:56:39.443Z,100186.91
2023-01-11T17:59:25.233Z,100184.03
2023-01-11T18:02:17.903Z,100179.50
2023-01-11T18:07:21.515Z,100191.75
2023-01-11T18:12:45.525Z,100201.59
2023-01-11T18:15:18.401Z,100200.00
2023-01-11T18:17:56.755Z,100199.31
2023-01-11T18:20:29.376Z,100202.59
2023-01-11T18:23:23.297Z,100200.41
2023-01-11T18:25:50.548Z,100208.12
2023-01-11T18:31:12.538Z,100206.56
2023-01-11T18:53:56.687Z,100234.75
2023-01-11T18:56:23.311Z,100235.94
2023-01-11T18:58:49.889Z,100239.22
2023-01-11T19:01:21.185Z,100237.13
2023-01-11T19:12:52.732Z,100221.91
2023-01-11T19:15:21.431Z,100216.09
2023-01-11T19:17:48.127Z,100222.69
2023-01-11T19:20:15.068Z,100223.72
2023-01-11T19:22:42.203Z,100220.00
2023-01-11T19:25:27.455Z,100229.06
2023-01-11T19:27:54.981Z,100235.19
2023-01-11T19:30:21.740Z,100227.53
2023-01-11T19:32:53.149Z,100237.56
2023-01-11T19:35:20.437Z,100249.94
2023-01-11T19:37:46.999Z,100252.12
2023-01-11T19:40:15.724Z,100254.75
2023-01-11T19:42:42.320Z,100255.72
2023-01-11T19:45:09.350Z,100257.81
2023-01-11T19:47:36.218Z,100260.06
2023-01-11T19:50:02.838Z,100268.63
2023-01-11T19:52:29.979Z,100267.81
2023-01-11T19:54:56.853Z,100264.66
2023-01-11T19:57:23.757Z,100265.81
2023-01-11T19:59:50.801Z,100264.13
2023-01-11T20:02:19.915Z,100263.09
2023-01-11T20:04:46.805Z,100263.66
2023-01-11T20:07:14.965Z,100258.06
2023-01-11T20:09:41.820Z,100257.87
2023-01-11T20:12:11.422Z,100251.03
2023-01-11T20:14:40.307Z,100243.31
2023-01-11T20:17:07.455Z,100243.94
2023-01-11T20:19:34.022Z,100242.50
2023-01-11T20:22:00.647Z,100246.53
2023-01-11T20:24:30.357Z,100248.00
2023-01-11T20:26:59.211Z,100254.00
2023-01-11T20:29:26.172Z,100255.88
2023-01-11T20:31:52.791Z,100257.87
2023-01-11T20:34:19.462Z,100254.31
2023-01-11T20:36:46.276Z,100262.22
2023-01-11T20:39:12.915Z,100260.91
2023-01-11T20:41:49.866Z,100258.34
2023-01-11T20:44:18.414Z,100256.34
2023-01-11T20:46:47.825Z,100256.84
2023-01-11T20:49:15.247Z,100253.53
2023-01-11T20:51:42.938Z,100260.00
2023-01-11T20:54:10.113Z,100264.78
2023-01-11T20:56:54.882Z,100271.37
2023-01-11T20:59:21.584Z,100271.88
2023-01-11T21:01:49.789Z,100261.81
2023-01-11T21:04:17.869Z,100275.38
2023-01-11T21:07:21.434Z,100282.41
2023-01-11T21:10:13.098Z,100286.47
2023-01-11T21:12:39.687Z,100281.75
2023-01-11T21:15:10.478Z,100291.66
2023-01-11T21:17:37.775Z,100296.81
2023-01-11T21:20:05.016Z,100289.03
2023-01-11T21:25:07.624Z,100300.63
2023-01-11T21:27:34.180Z,100294.56
2023-01-11T21:30:00.809Z,100299.31
2023-01-11T21:32:27.365Z,100299.59
2023-01-11T21:34:53.923Z,100297.72
2023-01-11T21:37:24.491Z,100302.69
2023-01-11T21:39:51.798Z,100291.28
2023-01-11T21:45:24.902Z,100298.84
2023-01-11T21:47:51.597Z,100305.66
2023-01-11T21:50:21.331Z,100302.47
2023-01-11T22:03:43.113Z,100317.09
2023-01-11T22:06:10.475Z,100316.03
2023-01-11T22:08:38.560Z,100309.19
2023-01-11T22:11:06.747Z,100316.47
2023-01-11T22:13:35.498Z,100309.56
2023-01-11T22:18:37.723Z,100306.94
2023-01-11T22:21:12.384Z,100314.38
2023-01-11T22:23:39.735Z,100318.22
2023-01-11T22:26:18.987Z,100306.66
2023-01-11T22:29:05.662Z,100318.66
2023-01-11T22:35:38.740Z,100317.34
2023-01-11T22:38:05.528Z,100319.69
2023-01-11T22:40:32.083Z,100316.47
2023-01-11T22:42:58.632Z,100318.56
2023-01-11T22:45:25.261Z,100316.72
2023-01-11T22:48:10.547Z,100322.56
2023-01-11T22:50:38.812Z,100321.53
2023-01-11T22:53:05.375Z,100318.56
2023-01-11T22:55:33.511Z,100323.59
2023-01-11T22:58:00.046Z,100330.00
2023-01-11T23:00:26.583Z,100327.81
2023-01-11T23:02:53.326Z,100329.81
2023-01-11T23:05:20.071Z,100330.41
2023-01-11T23:07:46.634Z,100337.25
2023-01-11T23:10:13.671Z,100331.47
2023-01-11T23:16:22.663Z,100324.78
2023-01-11T23:18:49.389Z,100318.59
2023-01-11T23:21:16.808Z,100324.38
2023-01-11T23:23:43.989Z,100327.25
2023-01-11T23:26:17.876Z,100324.97
2023-01-11T23:28:45.686Z,100316.16
2023-01-11T23:31:29.441Z,100320.12
2023-01-11T23:33:58.660Z,100305.16
2023-01-11T23:36:30.697Z,100308.34
2023-01-11T23:38:58.187Z,100307.44
2023-01-11T23:45:17.074Z,100317.63
2023-01-11T23:47:43.635Z,100321.22
2023-01-11T23:50:10.481Z,100317.03
2023-01-11T23:52:37.124Z,100318.44
2023-01-11T23:55:03.913Z,100308.50
2023-01-11T23:57:30.469Z,100317.97
